createdAt,value
2022-10-29T00:00:54.424Z,100962.13
2022-10-29T00:03:22.107Z,100967.34
2022-10-29T00:06:02.363Z,100969.97
2022-10-29T00:08:30.910Z,100960.41
2022-10-29T00:11:07.460Z,100954.31
2022-10-29T00:13:34.530Z,100956.03
2022-10-29T00:16:05.567Z,100961.25
2022-10-29T00:18:32.260Z,100956.03
2022-10-29T00:21:03.263Z,100961.25
2022-10-29T00:23:30.274Z,100948.22
2022-10-29T00:26:02.506Z,100956.94
2022-10-29T00:28:30.078Z,100956.06
2022-10-29T00:30:56.824Z,100953.44
2022-10-29T00:33:24.449Z,100941.25
2022-10-29T00:36:01.355Z,100956.88
2022-10-29T00:38:30.041Z,100935.13
2022-10-29T00:40:56.600Z,100944.69
2022-10-29T00:43:25.448Z,100944.72
2022-10-29T00:46:04.166Z,100930.78
2022-10-29T00:48:34.694Z,100940.38
2022-10-29T00:51:05.153Z,100909.94
2022-10-29T00:53:36.215Z,100921.22
2022-10-29T00:56:03.104Z,100923.78
2022-10-29T00:58:30.954Z,100924.66
2022-10-29T01:00:57.681Z,100868.19
2022-10-29T01:03:24.282Z,100916.88
2022-10-29T01:05:53.069Z,100904.69
2022-10-29T01:08:20.728Z,100914.25
2022-10-29T01:10:57.179Z,100904.69
2022-10-29T01:13:43.063Z,100895.97
2022-10-29T01:16:15.842Z,100904.66
2022-10-29T01:18:54.448Z,100896.81
2022-10-29T01:21:36.399Z,100906.38
2022-10-29T01:24:08.748Z,100902.00
2022-10-29T01:27:13.201Z,100902.91
2022-10-29T01:30:15.332Z,100906.38
2022-10-29T01:32:54.766Z,100889.84
2022-10-29T01:35:37.881Z,100894.16
2022-10-29T01:38:18.225Z,100894.19
2022-10-29T01:40:52.823Z,100872.47
2022-10-29T01:43:26.618Z,100884.66
2022-10-29T01:46:00.102Z,100885.53
2022-10-29T01:48:33.763Z,100886.38
2022-10-29T01:51:06.100Z,100882.00
2022-10-29T01:53:36.329Z,100884.63
2022-10-29T01:56:03.489Z,100894.19
2022-10-29T01:58:30.862Z,100895.94
2022-10-29T02:01:11.308Z,100890.69
2022-10-29T02:04:10.041Z,100874.16
2022-10-29T02:06:43.265Z,100886.34
2022-10-29T02:09:20.770Z,100875.91
2022-10-29T02:12:18.271Z,100854.19
2022-10-29T02:14:54.194Z,100868.06
2022-10-29T02:17:21.299Z,100871.56
2022-10-29T02:19:47.975Z,100875.88
2022-10-29T02:22:14.569Z,100849.81
2022-10-29T02:24:41.264Z,100865.44
2022-10-29T02:27:08.225Z,100862.88
2022-10-29T02:29:34.857Z,100852.44
2022-10-29T02:32:01.470Z,100842.84
2022-10-29T02:34:28.020Z,100854.16
2022-10-29T02:49:04.329Z,100847.88
2022-10-29T02:51:30.862Z,100842.66
2022-10-29T02:53:57.461Z,100849.66
2022-10-29T02:56:24.397Z,100834.88
2022-10-29T02:58:51.503Z,100820.13
2022-10-29T03:01:18.127Z,100838.34
2022-10-29T03:03:44.822Z,100841.84
2022-10-29T03:06:16.466Z,100820.16
2022-10-29T03:08:43.439Z,100847.09
2022-10-29T03:11:11.127Z,100847.97
2022-10-29T03:16:10.146Z,100840.13
2022-10-29T03:18:36.775Z,100820.13
2022-10-29T03:21:03.503Z,100829.66
2022-10-29T03:23:30.195Z,100822.69
2022-10-29T03:25:57.700Z,100823.53
2022-10-29T03:28:25.994Z,100826.16
2022-10-29T03:30:52.621Z,100807.06
2022-10-29T03:33:20.132Z,100808.75
2022-10-29T03:35:46.761Z,100808.75
2022-10-29T03:38:13.503Z,100796.59
2022-10-29T03:40:40.155Z,100813.06
2022-10-29T03:43:06.722Z,100814.78
2022-10-29T03:45:33.337Z,100813.03
2022-10-29T03:48:00.307Z,100802.63
2022-10-29T03:50:26.889Z,100806.13
2022-10-29T03:52:53.527Z,100800.91
2022-10-29T03:55:20.335Z,100800.06
2022-10-29T03:57:46.980Z,100780.03
2022-10-29T04:00:14.166Z,100798.28
2022-10-29T04:02:41.432Z,100800.00
2022-10-29T04:05:08.670Z,100798.28
2022-10-29T04:07:35.270Z,100767.00
2022-10-29T04:10:02.668Z,100763.50
2022-10-29T04:12:29.218Z,100786.94
2022-10-29T04:14:55.812Z,100781.69
2022-10-29T04:17:22.461Z,100766.03
2022-10-29T04:19:49.020Z,100782.50
2022-10-29T04:28:41.905Z,100760.72
2022-10-29T04:30:35.452Z,100758.97
